MUC | München Airways

 METAR UND TAF INFORMATION

METAR FOR GOBD
ADDS - METARS form results

(0322 UTC 24 January 2019)
Data provider http://aviationweather.gov/metar/data/
 
METAR text: GOBD 240300Z 01012KT 8000 NSC 19/09 Q1013 NOSIG
Conditions at: GOBD (DAKAR/DIAGNE , SN) observed 0300 UTC 24 January 2019
Temperature: 19.0°C (66°F)
Dewpoint: 9.0°C (48°F) [RH = 52%]
Pressure (altimeter): 29.91 inches Hg (1013.0 mb)
Winds: from the N (10 degrees) at 14 MPH (12 knots; 6.2 m/s)
Visibility: 5 miles ( 8 km)
Ceiling: at least 12,000 feet AGL
Clouds: sky clear below 12,000 feet AGL
Weather: no significant weather observed at this time

METAR text: GOBD 240230Z 36011KT 8000 NSC 19/09 Q1014 NOSIG
Conditions at: GOBD (DAKAR/DIAGNE , SN) observed 0230 UTC 24 January 2019
Temperature: 19.0°C (66°F)
Dewpoint: 9.0°C (48°F) [RH = 52%]
Pressure (altimeter): 29.94 inches Hg (1014.0 mb)
Winds: from the N (360 degrees) at 13 MPH (11 knots; 5.7 m/s)
Visibility: 5 miles ( 8 km)
Ceiling: at least 12,000 feet AGL
Clouds: sky clear below 12,000 feet AGL
Weather: no significant weather observed at this time

Forecast for: GOBD (DAKAR/DIAGNE , SN)
Text: TAF GOBD 232330Z 2400/2506 36013KT CAVOK
Forecast period: 0000 UTC 24 January 2019 to 0600 UTC 25 January 2019
Forecast type: FROM: standard forecast or significant change
Winds: from the N (360 degrees) at 15 MPH (13 knots; 6.7 m/s)
Visibility: 6 or more miles 10+ km)
Ceiling: unknown
Clouds: missing
Weather: NSW  (no significant weather)

 FLUGHAFENKARTE

 RUNWAY INFORMATION

 AIRPORT FREQUENCIES

 AIRPORT NEAR NAVIGATION AIDS